createdAt,value
2018-12-06T00:00:55.017Z,10.00
2018-12-06T00:05:59.910Z,10.10
2018-12-06T00:11:05.858Z,10.10
2018-12-06T00:16:10.815Z,10.10
2018-12-06T00:21:15.964Z,10.10
2018-12-06T00:26:20.792Z,10.20
2018-12-06T00:31:25.648Z,10.10
2018-12-06T00:36:30.467Z,10.20
2018-12-06T00:41:35.358Z,10.20
2018-12-06T00:46:40.668Z,10.20
2018-12-06T00:51:45.983Z,10.20
2018-12-06T00:56:52.213Z,10.30
2018-12-06T01:01:57.099Z,10.30
2018-12-06T01:07:02.165Z,10.30
2018-12-06T01:12:07.038Z,10.40
2018-12-06T01:17:12.374Z,10.30
2018-12-06T01:22:17.167Z,10.40
2018-12-06T01:27:22.493Z,10.40
2018-12-06T01:32:27.394Z,10.40
2018-12-06T01:37:32.378Z,10.40
2018-12-06T01:42:37.295Z,10.40
2018-12-06T01:47:42.174Z,10.50
2018-12-06T01:52:47.017Z,10.50
2018-12-06T01:57:51.885Z,10.50
2018-12-06T02:02:56.885Z,10.50
2018-12-06T02:08:01.680Z,10.50
2018-12-06T02:13:06.563Z,10.50
2018-12-06T02:18:11.464Z,10.50
2018-12-06T02:23:16.349Z,10.50
2018-12-06T02:28:21.471Z,10.50
2018-12-06T02:33:26.319Z,10.60
2018-12-06T02:38:31.274Z,10.60
2018-12-06T02:43:36.495Z,10.60
2018-12-06T02:48:41.320Z,10.60
2018-12-06T02:53:46.282Z,10.60
2018-12-06T02:58:51.273Z,10.70
2018-12-06T03:03:56.061Z,10.60
2018-12-06T03:09:01.253Z,10.70
2018-12-06T03:14:07.322Z,10.70
2018-12-06T03:19:12.159Z,10.70
2018-12-06T03:24:17.085Z,10.70
2018-12-06T03:29:22.099Z,10.80
2018-12-06T03:34:27.058Z,10.80
2018-12-06T03:39:32.507Z,10.80
2018-12-06T03:44:37.464Z,10.80
2018-12-06T03:49:43.231Z,10.80
2018-12-06T03:54:48.708Z,10.90
2018-12-06T03:59:53.996Z,11.00
2018-12-06T04:04:58.854Z,11.00
2018-12-06T04:10:04.200Z,11.00
2018-12-06T04:15:09.332Z,11.10
2018-12-06T04:20:14.534Z,11.10
2018-12-06T04:25:19.345Z,11.10
2018-12-06T04:30:24.265Z,11.10
2018-12-06T04:35:29.081Z,11.10
2018-12-06T04:40:33.918Z,11.00
2018-12-06T04:45:38.782Z,11.10
2018-12-06T04:50:43.692Z,11.10
2018-12-06T04:55:48.536Z,11.10
2018-12-06T05:00:53.433Z,11.10
2018-12-06T05:05:58.457Z,11.10
2018-12-06T05:11:04.364Z,11.20
2018-12-06T05:16:09.208Z,11.20
2018-12-06T05:21:14.084Z,11.20
2018-12-06T05:26:19.212Z,11.30
2018-12-06T05:31:24.001Z,11.30
2018-12-06T05:36:29.102Z,11.30
2018-12-06T05:41:33.983Z,11.40
2018-12-06T05:46:38.833Z,11.40
2018-12-06T05:51:43.911Z,11.50
2018-12-06T05:56:48.842Z,11.50
2018-12-06T06:01:53.634Z,11.60
2018-12-06T06:07:01.830Z,11.60
2018-12-06T06:12:06.686Z,11.60
2018-12-06T06:17:11.867Z,11.70
2018-12-06T06:22:16.832Z,11.70
2018-12-06T06:27:21.642Z,11.70
2018-12-06T06:32:26.484Z,11.70
2018-12-06T06:37:31.291Z,11.70
2018-12-06T06:42:36.206Z,11.70
2018-12-06T06:48:16.355Z,11.70
2018-12-06T06:53:21.110Z,11.70
2018-12-06T06:58:26.053Z,11.70
2018-12-06T07:03:30.856Z,11.80
2018-12-06T07:08:35.691Z,11.80
2018-12-06T07:13:40.500Z,11.80
2018-12-06T07:18:45.331Z,11.80
2018-12-06T07:23:50.126Z,11.80
2018-12-06T07:28:55.024Z,11.80
2018-12-06T07:33:59.965Z,11.80
2018-12-06T07:39:07.550Z,11.80
2018-12-06T07:44:12.360Z,11.80
2018-12-06T07:49:17.319Z,11.80
2018-12-06T07:54:22.222Z,11.80
2018-12-06T07:59:27.138Z,11.80
2018-12-06T08:04:31.959Z,11.90
2018-12-06T08:09:36.778Z,11.90
2018-12-06T08:14:42.268Z,11.90
2018-12-06T08:19:47.149Z,11.90
2018-12-06T08:24:52.048Z,11.90
2018-12-06T08:29:57.101Z,11.80
2018-12-06T08:35:01.924Z,11.80
2018-12-06T08:40:07.643Z,11.80
2018-12-06T08:45:12.557Z,11.80
2018-12-06T08:50:17.823Z,11.80
2018-12-06T08:55:22.674Z,11.80
2018-12-06T09:00:27.580Z,11.80
2018-12-06T09:05:32.857Z,11.70
2018-12-06T09:10:37.658Z,11.80
2018-12-06T09:15:42.555Z,11.70
2018-12-06T09:20:47.426Z,11.70
2018-12-06T09:31:04.728Z,11.60
2018-12-06T09:36:09.742Z,11.60
2018-12-06T09:41:14.586Z,11.70
2018-12-06T09:46:19.466Z,11.60
2018-12-06T09:51:24.295Z,11.50
2018-12-06T09:56:29.424Z,11.50
2018-12-06T10:01:34.388Z,11.40
2018-12-06T10:06:39.186Z,11.40
2018-12-06T10:11:44.074Z,11.40
2018-12-06T10:16:49.221Z,11.50
2018-12-06T10:21:54.071Z,11.50
2018-12-06T10:26:58.878Z,11.50
2018-12-06T10:32:03.815Z,11.50
2018-12-06T10:37:08.782Z,11.60
2018-12-06T10:42:13.696Z,11.70
2018-12-06T10:47:18.615Z,11.70
2018-12-06T10:52:23.527Z,11.70
2018-12-06T10:57:28.468Z,11.60
2018-12-06T11:02:38.611Z,11.70
2018-12-06T11:07:44.669Z,11.70
2018-12-06T11:12:49.515Z,11.70
2018-12-06T11:17:54.382Z,11.70
2018-12-06T11:22:59.271Z,11.70
2018-12-06T11:28:04.148Z,11.70
2018-12-06T11:33:09.292Z,11.80
2018-12-06T11:38:14.238Z,11.80
2018-12-06T11:43:19.474Z,11.70
2018-12-06T11:48:27.092Z,11.80
2018-12-06T11:53:32.146Z,11.80
2018-12-06T11:58:37.126Z,11.80
2018-12-06T12:03:42.139Z,11.80
2018-12-06T12:08:46.932Z,11.80
2018-12-06T12:13:51.973Z,11.80
2018-12-06T12:18:56.845Z,11.80
2018-12-06T12:24:01.628Z,11.80
2018-12-06T12:29:06.580Z,11.80
2018-12-06T12:34:11.359Z,11.80
2018-12-06T12:39:16.206Z,11.80
2018-12-06T12:44:21.098Z,11.90
2018-12-06T12:49:25.877Z,11.90
2018-12-06T12:54:31.186Z,11.90
2018-12-06T12:59:35.910Z,11.80
2018-12-06T13:04:40.794Z,11.80
2018-12-06T13:09:45.595Z,11.90
2018-12-06T13:14:50.467Z,11.90
2018-12-06T13:19:55.400Z,11.90
2018-12-06T13:25:00.430Z,11.90
2018-12-06T13:30:06.014Z,11.90
2018-12-06T13:35:11.263Z,11.90
2018-12-06T13:40:16.172Z,11.90
2018-12-06T13:45:21.127Z,11.90
2018-12-06T13:50:26.195Z,11.90
2018-12-06T13:55:30.996Z,11.80
2018-12-06T14:00:36.930Z,11.90
2018-12-06T14:05:42.114Z,11.90
2018-12-06T14:10:46.969Z,12.00
2018-12-06T14:15:51.759Z,11.90
2018-12-06T14:20:56.522Z,12.00
2018-12-06T14:26:01.266Z,12.00
2018-12-06T14:31:06.054Z,12.00
2018-12-06T14:36:10.936Z,12.00
2018-12-06T14:41:15.725Z,12.00
2018-12-06T14:46:20.537Z,12.00
2018-12-06T14:51:25.607Z,12.00
2018-12-06T14:56:30.467Z,12.10
2018-12-06T15:01:35.490Z,12.10
2018-12-06T15:06:40.724Z,12.10
2018-12-06T15:11:45.581Z,12.10
2018-12-06T15:16:50.409Z,12.10
2018-12-06T15:21:55.180Z,12.20
2018-12-06T15:27:00.121Z,12.20
2018-12-06T15:32:04.868Z,12.20
2018-12-06T15:37:09.626Z,12.20
2018-12-06T15:42:14.427Z,12.20
2018-12-06T15:47:19.220Z,12.20
2018-12-06T15:52:24.013Z,12.20
2018-12-06T15:57:28.956Z,12.30
2018-12-06T16:02:33.729Z,12.30
2018-12-06T16:07:39.047Z,12.30
2018-12-06T16:12:43.874Z,12.30
2018-12-06T16:17:48.732Z,12.40
2018-12-06T16:22:54.622Z,12.40
2018-12-06T16:27:59.775Z,12.40
2018-12-06T16:33:04.513Z,12.40
2018-12-06T16:38:09.277Z,12.40
2018-12-06T16:43:14.040Z,12.30
2018-12-06T16:48:18.860Z,12.30
2018-12-06T16:53:23.638Z,12.30
2018-12-06T16:58:28.455Z,12.30
2018-12-06T17:03:33.271Z,12.30
2018-12-06T17:08:38.043Z,12.30
2018-12-06T17:13:42.856Z,12.30
2018-12-06T17:18:47.645Z,12.30
2018-12-06T17:23:52.406Z,12.30
2018-12-06T17:28:57.301Z,12.30
2018-12-06T17:34:02.200Z,12.30
2018-12-06T17:39:08.202Z,12.40
2018-12-06T17:44:13.544Z,12.40
2018-12-06T17:49:18.404Z,12.40
2018-12-06T17:54:23.337Z,12.50
2018-12-06T17:59:29.375Z,12.50
2018-12-06T18:04:34.195Z,12.50
2018-12-06T18:09:38.973Z,12.50
2018-12-06T18:14:43.824Z,12.50
2018-12-06T18:19:48.616Z,12.50
2018-12-06T18:24:53.406Z,12.50
2018-12-06T18:29:58.382Z,12.50
2018-12-06T18:35:03.551Z,12.60
2018-12-06T18:40:08.462Z,12.60
2018-12-06T18:45:13.518Z,12.40
2018-12-06T18:50:18.421Z,12.10
2018-12-06T18:55:23.156Z,12.00
2018-12-06T19:00:28.275Z,11.90
2018-12-06T19:05:33.381Z,11.80
2018-12-06T19:10:38.270Z,11.70
2018-12-06T19:15:43.069Z,11.80
2018-12-06T19:20:47.990Z,11.80
2018-12-06T19:25:52.890Z,11.90
2018-12-06T19:30:58.192Z,11.90
2018-12-06T19:36:03.096Z,12.00
2018-12-06T19:41:07.863Z,12.00
2018-12-06T19:46:12.636Z,12.00
2018-12-06T19:51:17.475Z,12.00
2018-12-06T19:56:22.312Z,12.00
2018-12-06T20:01:27.326Z,12.00
2018-12-06T20:06:32.456Z,12.00
2018-12-06T20:11:37.413Z,12.00
2018-12-06T20:16:42.422Z,12.10
2018-12-06T20:21:47.266Z,12.10
2018-12-06T20:26:52.207Z,12.10
2018-12-06T20:31:57.101Z,12.10
2018-12-06T20:37:02.072Z,12.10
2018-12-06T20:42:06.937Z,12.10
2018-12-06T20:47:15.997Z,12.10
2018-12-06T20:52:20.829Z,12.10
2018-12-06T20:57:25.594Z,12.00
2018-12-06T21:02:30.552Z,12.00
2018-12-06T21:07:35.340Z,11.90
2018-12-06T21:12:40.075Z,11.90
2018-12-06T21:17:44.863Z,11.80
2018-12-06T21:22:49.692Z,11.80
2018-12-06T21:27:54.560Z,11.80
2018-12-06T21:32:59.363Z,11.80
2018-12-06T21:38:04.311Z,11.80
2018-12-06T21:43:09.122Z,11.80
2018-12-06T21:48:14.095Z,11.80
2018-12-06T21:53:18.995Z,11.80
2018-12-06T21:58:23.737Z,11.80
2018-12-06T22:03:28.706Z,11.90
2018-12-06T22:08:33.562Z,11.90
2018-12-06T22:13:38.405Z,11.90
2018-12-06T22:18:43.168Z,11.90
2018-12-06T22:23:48.082Z,11.80
2018-12-06T22:28:52.884Z,11.80
2018-12-06T22:33:57.769Z,11.80
2018-12-06T22:39:02.790Z,11.80
2018-12-06T22:44:07.537Z,11.80
2018-12-06T22:49:12.448Z,11.80
2018-12-06T22:54:17.221Z,11.80
2018-12-06T22:59:22.298Z,11.80
2018-12-06T23:04:27.331Z,11.80
2018-12-06T23:09:32.156Z,11.80
2018-12-06T23:14:37.162Z,11.80
2018-12-06T23:19:41.974Z,11.80
2018-12-06T23:24:46.836Z,11.80
2018-12-06T23:29:51.607Z,11.80
2018-12-06T23:34:56.405Z,11.80
2018-12-06T23:40:01.144Z,11.80
2018-12-06T23:45:06.848Z,11.80
2018-12-06T23:50:12.191Z,11.80
2018-12-06T23:55:17.045Z,11.80
